Time;durP1;ratioP1;P1;durP2;ratioP2;P2;SDS_P1;SDS_P2;PMS_P1;PMS_P2;Temp;Humidity;BMP_temperature;BMP_pressure;BME280_temperature;BME280_humidity;BME280_pressure;Samples;Min_cycle;Max_cycle;Signal;HPM_P1;HPM_P2
2023/05/29 00:01:24;;;;;;;17.25;7.45;;;;;;;15.24;62.90;101026.40;5035671;56;1136670;-65
2023/05/29 00:06:29;;;;;;;22.93;7.53;;;;;;;15.13;62.75;101022.00;5056659;56;1141194;-68
2023/05/29 00:11:35;;;;;;;15.85;6.42;;;;;;;15.00;62.32;101021.89;4899075;58;1140819;-67
2023/05/29 00:16:43;;;;;;;17.20;6.93;;;;;;;14.88;63.01;101025.15;5036990;57;1140965;-68
2023/05/29 00:21:48;;;;;;;17.03;7.53;;;;;;;14.83;63.34;101020.70;5056988;57;1140777;-67
2023/05/29 00:26:54;;;;;;;15.63;8.03;;;;;;;14.70;63.78;101017.43;5092174;56;1140724;-66
2023/05/29 00:31:59;;;;;;;16.27;6.77;;;;;;;14.53;63.93;101017.55;5176091;56;1141048;-65
2023/05/29 00:37:07;;;;;;;16.35;7.00;;;;;;;14.53;64.35;101020.70;5195948;56;1141340;-68
2023/05/29 00:42:12;;;;;;;15.35;6.72;;;;;;;14.54;64.51;101021.91;5175868;56;1140945;-65
2023/05/29 00:47:18;;;;;;;10.70;6.47;;;;;;;14.50;64.50;101020.99;5175843;56;1140843;-67
2023/05/29 00:52:25;;;;;;;16.32;6.30;;;;;;;14.41;64.56;101018.12;5135331;56;1140886;-67
2023/05/29 00:57:33;;;;;;;16.00;6.60;;;;;;;14.32;65.12;101018.05;5118205;56;1141131;-67
2023/05/29 01:02:43;;;;;;;12.77;6.40;;;;;;;14.23;65.46;101017.48;4952495;57;1140793;-67
2023/05/29 01:07:48;;;;;;;14.07;6.97;;;;;;;14.23;65.81;101026.31;5097557;56;1140737;-69
2023/05/29 01:13:05;;;;;;;14.20;7.00;;;;;;;14.18;65.52;101030.36;4904395;57;1140731;-69
2023/05/29 01:18:57;;;;;;;16.67;6.00;;;;;;;13.89;65.60;101030.14;5093241;56;1140782;-67
2023/05/29 01:24:23;;;;;;;14.38;6.85;;;;;;;13.53;66.22;101041.50;5100226;56;1140929;-64
2023/05/29 01:29:33;;;;;;;12.47;6.57;;;;;;;12.94;67.19;101043.14;5092821;56;1141057;-66
2023/05/29 01:34:39;;;;;;;15.30;6.37;;;;;;;13.01;69.19;101040.34;5092775;57;1141249;-65
2023/05/29 01:39:45;;;;;;;17.37;7.35;;;;;;;13.04;69.17;101033.47;5112710;56;1141211;-65
2023/05/29 01:44:50;;;;;;;13.03;6.67;;;;;;;13.12;70.21;101034.19;5092623;57;1140979;-66
2023/05/29 01:49:57;;;;;;;23.80;8.40;;;;;;;13.13;69.63;101045.18;5025932;57;1140896;-69
2023/05/29 01:55:03;;;;;;;19.35;9.10;;;;;;;13.16;69.51;101043.61;5137968;56;1141176;-63
2023/05/29 02:00:10;;;;;;;20.82;8.88;;;;;;;13.15;69.62;101039.75;5120531;55;1140971;-66
2023/05/29 02:05:21;;;;;;;17.82;8.93;;;;;;;13.16;69.58;101035.65;5120637;55;1141089;-67
2023/05/29 02:10:27;;;;;;;26.40;10.67;;;;;;;13.13;69.65;101032.38;5101165;55;1140921;-68
2023/05/29 02:15:32;;;;;;;28.07;12.17;;;;;;;13.10;69.57;101040.59;5023262;57;1142994;-67
2023/05/29 02:20:38;;;;;;;19.73;8.53;;;;;;;12.93;69.75;101035.29;5003525;57;1143060;-64
2023/05/29 02:25:44;;;;;;;21.33;8.67;;;;;;;12.91;70.37;101030.09;5036882;57;1140952;-66
2023/05/29 02:30:50;;;;;;;12.87;7.53;;;;;;;12.91;70.63;101027.92;5107074;57;1141149;-65
2023/05/29 02:35:55;;;;;;;19.40;7.87;;;;;;;12.87;70.54;101033.11;5086621;55;1140963;-66
2023/05/29 02:41:02;;;;;;;14.40;6.67;;;;;;;12.78;69.89;101037.83;5087565;56;1140791;-68
2023/05/29 02:46:07;;;;;;;12.47;6.33;;;;;;;12.72;70.65;101031.66;5105059;56;1141086;-63
2023/05/29 02:51:13;;;;;;;10.98;6.75;;;;;;;12.68;70.70;101026.58;5013093;56;1140973;-66
2023/05/29 02:56:23;;;;;;;21.73;7.30;;;;;;;12.48;69.90;101028.64;5003642;58;1141021;-66
2023/05/29 03:01:26;;;;;;;14.40;5.93;;;;;;;11.92;70.56;101038.24;5010546;57;1140992;-68
2023/05/29 03:06:33;;;;;;;10.80;4.70;;;;;;;11.39;72.07;101040.86;5031602;57;1140863;-69
2023/05/29 03:11:40;;;;;;;10.63;5.10;;;;;;;11.02;73.47;101044.81;5016625;57;1141099;-66
2023/05/29 03:16:46;;;;;;;8.87;5.30;;;;;;;10.77;75.24;101039.56;4965670;57;1140918;-70
2023/05/29 03:21:52;;;;;;;12.57;4.90;;;;;;;10.57;76.18;101042.27;4960760;58;1138801;-64
2023/05/29 03:26:58;;;;;;;40.70;6.00;;;;;;;10.50;77.21;101046.30;4993164;57;1140922;-65
2023/05/29 03:32:03;;;;;;;16.65;5.05;;;;;;;10.51;77.75;101049.33;5022152;57;1140862;-65
2023/05/29 03:37:11;;;;;;;11.95;4.75;;;;;;;10.52;78.21;101047.89;5041935;57;1140927;-67
2023/05/29 03:42:16;;;;;;;14.63;5.17;;;;;;;10.52;79.19;101053.19;5053310;56;1261395;-66
2023/05/29 03:47:22;;;;;;;12.20;5.43;;;;;;;10.49;79.62;101053.87;4954992;56;1140952;-68
2023/05/29 03:52:29;;;;;;;18.48;4.80;;;;;;;10.53;80.43;101051.39;4981081;57;1141026;-67
2023/05/29 03:57:35;;;;;;;14.27;5.83;;;;;;;10.55;81.40;101053.42;5041969;57;1140973;-68
2023/05/29 04:02:41;;;;;;;15.93;6.40;;;;;;;10.56;82.68;101054.64;5098907;56;1141012;-66
2023/05/29 04:07:47;;;;;;;16.47;5.03;;;;;;;10.55;84.53;101058.24;5143668;55;1140684;-71
2023/05/29 04:12:53;;;;;;;26.17;5.10;;;;;;;10.68;84.97;101058.74;4937647;58;1141362;-70
2023/05/29 04:18:01;;;;;;;14.98;5.62;;;;;;;10.86;85.68;101071.51;4924903;58;1140840;-70
2023/05/29 04:23:07;;;;;;;12.33;5.70;;;;;;;11.15;86.39;101068.63;4903460;58;1140995;-65
2023/05/29 04:28:12;;;;;;;14.68;6.03;;;;;;;11.48;86.92;101064.02;5011712;57;1140975;-65
2023/05/29 04:33:23;;;;;;;15.93;5.57;;;;;;;11.79;86.74;101055.54;5002985;57;1141036;-71
2023/05/29 04:38:29;;;;;;;19.00;6.22;;;;;;;12.02;86.45;101059.63;5003354;57;1141005;-66
2023/05/29 04:43:36;;;;;;;13.53;5.20;;;;;;;12.21;86.30;101060.78;4942532;58;1140719;-66
2023/05/29 04:48:43;;;;;;;13.13;5.90;;;;;;;12.33;86.15;101067.80;4924344;58;1140855;-67
2023/05/29 04:53:56;;;;;;;10.87;5.60;;;;;;;12.40;86.32;101064.18;4966094;57;1141141;-69
2023/05/29 04:58:58;;;;;;;14.67;5.20;;;;;;;12.56;86.29;101069.16;5029226;57;1140851;-66
2023/05/29 05:04:04;;;;;;;16.57;5.23;;;;;;;12.80;86.54;101061.12;4913342;58;1141080;-68
2023/05/29 05:09:10;;;;;;;13.48;5.33;;;;;;;13.09;86.16;101061.47;4997476;58;1140931;-65
2023/05/29 05:14:18;;;;;;;14.36;4.98;;;;;;;13.35;85.83;101061.58;4932408;57;1140955;-71
2023/05/29 05:19:24;;;;;;;15.90;5.23;;;;;;;13.62;85.35;101062.00;4953006;56;1140916;-70
2023/05/29 05:24:32;;;;;;;11.93;4.40;;;;;;;13.92;85.57;101060.44;4935790;58;1141247;-69
2023/05/29 05:29:38;;;;;;;10.93;4.23;;;;;;;14.21;84.37;101050.02;4852324;58;1140735;-66
2023/05/29 05:34:43;;;;;;;10.70;4.90;;;;;;;14.46;83.68;101056.82;5023460;57;1140954;-69
2023/05/29 05:39:53;;;;;;;7.20;4.37;;;;;;;14.73;82.83;101059.77;5003724;57;1140936;-69
2023/05/29 05:44:59;;;;;;;14.63;3.73;;;;;;;14.99;82.82;101068.99;4975154;57;1138896;-65
2023/05/29 05:50:05;;;;;;;14.37;4.90;;;;;;;15.23;81.32;101076.67;4974201;57;1146577;-68
2023/05/29 05:55:11;;;;;;;12.53;4.00;;;;;;;15.42;80.76;101073.23;4923721;59;1141185;-70
2023/05/29 06:00:17;;;;;;;9.10;4.37;;;;;;;15.65;79.87;101068.52;4923038;58;1141055;-68
2023/05/29 06:05:22;;;;;;;13.08;3.80;;;;;;;15.88;78.36;101075.78;4928633;57;1139173;-70
2023/05/29 06:10:28;;;;;;;18.20;4.87;;;;;;;16.02;76.00;101080.70;5081661;57;1141003;-70
2023/05/29 06:15:35;;;;;;;15.63;4.17;;;;;;;16.23;76.49;101084.54;4975969;57;1141036;-68
2023/05/29 06:20:41;;;;;;;10.97;4.63;;;;;;;16.41;75.05;101094.85;4983960;56;1140802;-69
2023/05/29 06:25:46;;;;;;;14.80;6.03;;;;;;;16.61;73.60;101093.84;5075118;56;1140878;-67
2023/05/29 06:30:53;;;;;;;14.67;3.83;;;;;;;16.82;73.15;101102.52;5086994;56;1140981;-69
2023/05/29 06:35:59;;;;;;;9.07;3.70;;;;;;;17.00;71.57;101098.60;5069533;55;1140869;-67
2023/05/29 06:41:04;;;;;;;9.67;4.40;;;;;;;17.10;70.22;101102.10;5193797;56;1138905;-68
2023/05/29 06:46:12;;;;;;;20.70;4.20;;;;;;;17.21;69.40;101106.41;5136316;55;1138913;-70
2023/05/29 06:51:19;;;;;;;13.33;3.70;;;;;;;17.46;68.25;101105.70;5111993;55;1140980;-69
2023/05/29 06:56:33;;;;;;;9.90;3.27;;;;;;;17.74;69.25;101107.89;5086989;57;1140976;-67
2023/05/29 07:01:39;;;;;;;20.33;3.57;;;;;;;18.00;65.89;101103.99;5105774;57;1138582;-70
2023/05/29 07:06:45;;;;;;;16.90;3.50;;;;;;;18.16;64.70;101104.64;5091061;56;1141025;-69
2023/05/29 07:11:50;;;;;;;12.97;3.47;;;;;;;18.27;64.68;101105.23;5107628;55;1140846;-67
2023/05/29 07:16:56;;;;;;;9.57;3.53;;;;;;;18.49;62.86;101100.37;5129592;56;1140973;-65
2023/05/29 07:22:02;;;;;;;11.30;3.57;;;;;;;18.68;62.67;101095.34;5109506;56;1138808;-66
2023/05/29 07:27:08;;;;;;;6.47;2.90;;;;;;;18.93;62.56;101094.52;5115533;55;1141057;-70
2023/05/29 07:32:13;;;;;;;11.03;3.60;;;;;;;19.18;59.55;101099.00;5217790;55;1139055;-69
2023/05/29 07:37:19;;;;;;;9.85;3.58;;;;;;;19.24;58.83;101097.03;5197583;55;1141013;-69
2023/05/29 07:42:26;;;;;;;16.37;3.37;;;;;;;19.46;59.39;101097.42;5197568;55;1139012;-69
2023/05/29 07:47:31;;;;;;;8.50;3.27;;;;;;;19.74;59.39;101102.91;5133387;55;1141113;-70
2023/05/29 07:52:37;;;;;;;7.08;3.00;;;;;;;19.96;56.76;101102.80;5107867;56;1138895;-70
2023/05/29 07:57:43;;;;;;;8.00;3.47;;;;;;;19.82;57.45;101112.34;5105894;56;1138892;-67
2023/05/29 08:02:48;;;;;;;11.33;4.10;;;;;;;19.91;57.57;101109.16;5125894;56;1138945;-69
2023/05/29 08:08:01;;;;;;;7.87;2.92;;;;;;;19.84;56.94;101113.52;5054507;55;1141013;-67
2023/05/29 08:13:07;;;;;;;7.85;3.08;;;;;;;19.87;56.46;101126.58;5035883;56;1138776;-65
2023/05/29 08:18:15;;;;;;;11.00;3.10;;;;;;;19.95;57.16;101125.28;5056528;56;1139000;-65
2023/05/29 08:23:20;;;;;;;5.63;2.83;;;;;;;20.16;56.48;101124.31;5036268;56;1140873;-65
2023/05/29 08:28:26;;;;;;;10.53;3.27;;;;;;;20.18;57.27;101122.77;5115335;55;1138877;-68
2023/05/29 08:33:32;;;;;;;14.12;3.52;;;;;;;20.26;57.44;101129.02;5140692;55;1140820;-67
2023/05/29 08:38:38;;;;;;;9.63;2.83;;;;;;;20.22;54.09;101136.22;5120097;55;1140843;-68
2023/05/29 08:43:46;;;;;;;12.33;3.10;;;;;;;20.28;54.66;101134.22;5103416;55;1138909;-67
2023/05/29 08:48:52;;;;;;;6.70;2.83;;;;;;;20.30;54.68;101130.36;5055639;56;1140962;-64
2023/05/29 08:53:58;;;;;;;9.20;3.40;;;;;;;20.47;56.53;101130.41;5032987;56;1138748;-64
2023/05/29 08:59:04;;;;;;;5.47;3.12;;;;;;;20.73;55.98;101126.17;5031437;56;1138613;-67
2023/05/29 09:04:10;;;;;;;8.40;2.96;;;;;;;20.83;53.40;101121.44;5052620;56;1138867;-68
2023/05/29 09:09:16;;;;;;;18.23;3.42;;;;;;;20.80;54.09;101123.12;5036595;56;1138920;-67
2023/05/29 09:14:41;;;;;;;9.78;3.27;;;;;;;20.69;53.90;101125.16;5035738;56;1141093;-66
2023/05/29 09:19:46;;;;;;;8.28;4.40;;;;;;;20.99;54.29;101123.59;5004924;56;1138960;-66
2023/05/29 09:24:52;;;;;;;5.05;3.20;;;;;;;21.16;54.62;101124.89;5036109;56;1138802;-68
2023/05/29 09:29:58;;;;;;;11.93;3.60;;;;;;;21.58;55.52;101129.97;4833418;59;1138662;-66
2023/05/29 09:35:05;;;;;;;9.90;3.40;;;;;;;21.92;54.52;101130.45;4993872;57;1140840;-67
2023/05/29 09:40:13;;;;;;;9.64;3.24;;;;;;;22.05;53.73;101132.59;5024074;58;1138919;-69
2023/05/29 09:45:21;;;;;;;6.22;3.83;;;;;;;22.17;53.97;101123.58;5003997;56;1138779;-64
2023/05/29 09:50:30;;;;;;;11.47;3.40;;;;;;;22.43;52.72;101128.95;5001725;57;1139164;-65
2023/05/29 09:55:37;;;;;;;5.53;2.77;;;;;;;22.55;50.67;101128.50;4953030;58;1140587;-68
2023/05/29 10:00:45;;;;;;;8.35;2.60;;;;;;;22.29;50.71;101123.51;4903242;57;1138793;-65
2023/05/29 10:05:59;;;;;;;7.12;3.45;;;;;;;22.05;49.67;101125.86;4863068;58;1138727;-67
2023/05/29 10:11:09;;;;;;;2.83;2.17;;;;;;;21.91;50.72;101130.12;4909424;58;1138996;-68
2023/05/29 10:16:13;;;;;;;4.50;2.27;;;;;;;22.30;52.00;101127.38;5089313;56;1138748;-69
2023/05/29 10:21:20;;;;;;;5.87;2.97;;;;;;;22.37;51.69;101131.00;5101915;55;1138941;-64
2023/05/29 10:26:31;;;;;;;11.75;3.37;;;;;;;22.60;48.11;101130.99;5122151;55;1138880;-66
2023/05/29 10:31:43;;;;;;;5.92;2.50;;;;;;;22.06;46.21;101123.49;5151687;55;1140877;-64
2023/05/29 10:37:08;;;;;;;2.30;2.10;;;;;;;22.28;49.84;101129.91;5124235;56;1138773;-65
2023/05/29 10:42:45;;;;;;;3.05;2.27;;;;;;;22.53;45.07;101121.94;5186561;55;1138943;-68
2023/05/29 10:47:50;;;;;;;5.47;2.47;;;;;;;22.48;44.35;101125.68;5038584;57;1138909;-67
2023/05/29 10:52:56;;;;;;;5.53;2.70;;;;;;;22.46;47.73;101123.16;5012916;57;1138931;-65
2023/05/29 10:58:07;;;;;;;8.25;3.02;;;;;;;22.34;45.30;101117.05;4961351;57;1138921;-66
2023/05/29 11:03:22;;;;;;;4.17;2.63;;;;;;;22.32;46.52;101111.83;5012634;57;1139143;-67
2023/05/29 11:08:36;;;;;;;15.80;3.10;;;;;;;22.37;46.10;101112.64;5012021;57;1138899;-62
2023/05/29 11:13:44;;;;;;;7.45;3.87;;;;;;;22.10;44.20;101102.76;5059245;57;1141192;-67
2023/05/29 11:18:50;;;;;;;5.90;2.45;;;;;;;21.92;43.81;101103.52;5069091;56;1138640;-68
2023/05/29 11:23:56;;;;;;;3.40;2.75;;;;;;;21.83;44.73;101105.11;5003776;57;1138728;-67
2023/05/29 11:29:11;;;;;;;8.08;2.45;;;;;;;22.17;42.52;101092.08;5099153;57;1138853;-64
2023/05/29 11:34:17;;;;;;;6.40;2.60;;;;;;;22.15;42.51;101085.22;5002954;57;1139100;-67
2023/05/29 11:39:23;;;;;;;8.23;2.40;;;;;;;22.31;44.74;101100.72;5016742;57;1138784;-67
2023/05/29 11:44:29;;;;;;;4.57;2.40;;;;;;;22.64;44.71;101088.30;5003048;58;1138963;-68
2023/05/29 11:49:36;;;;;;;4.58;2.70;;;;;;;22.39;43.17;101085.84;5022491;57;1138838;-65
2023/05/29 11:54:47;;;;;;;11.20;2.70;;;;;;;22.39;43.17;101085.84;5080263;57;1138814;-68
2023/05/29 11:59:58;;;;;;;4.20;2.27;;;;;;;22.60;43.47;101085.16;4966933;58;1140900;-67
2023/05/29 12:05:08;;;;;;;5.87;2.62;;;;;;;22.94;43.11;101075.20;4919112;59;1138972;-66
2023/05/29 12:10:16;;;;;;;7.40;2.82;;;;;;;23.00;40.45;101078.52;4936054;57;1138894;-67
2023/05/29 12:15:23;;;;;;;4.67;2.47;;;;;;;22.74;41.19;101061.41;4931982;58;1139116;-65
2023/05/29 12:20:29;;;;;;;3.90;1.83;;;;;;;22.55;40.66;101080.81;4931582;58;1139277;-66
2023/05/29 12:25:43;;;;;;;4.03;2.50;;;;;;;22.35;41.32;101083.17;4980733;57;1138899;-66
2023/05/29 12:30:45;;;;;;;4.55;2.42;;;;;;;22.37;39.59;101080.30;4992538;57;1138967;-67
2023/05/29 12:35:51;;;;;;;5.22;2.67;;;;;;;22.64;42.09;101068.08;4927093;57;1138822;-67
2023/05/29 12:40:56;;;;;;;2.55;2.08;;;;;;;22.85;41.42;101063.34;4887586;58;1138865;-69
2023/05/29 12:46:02;;;;;;;3.40;2.35;;;;;;;22.75;39.27;101065.79;4916412;59;1138814;-66
2023/05/29 12:51:07;;;;;;;4.85;2.22;;;;;;;22.66;39.11;101054.74;4924970;58;1138772;-68
2023/05/29 12:56:13;;;;;;;9.25;2.35;;;;;;;22.48;38.53;101060.15;4955483;58;1138965;-67
2023/05/29 13:01:20;;;;;;;4.28;2.00;;;;;;;22.40;38.25;101061.08;4934637;58;1212355;-67
2023/05/29 13:06:26;;;;;;;2.90;1.57;;;;;;;22.40;39.81;101059.73;4936550;57;1138911;-65
2023/05/29 13:11:32;;;;;;;3.90;2.17;;;;;;;22.70;36.65;101047.97;4894320;58;1138875;-68
2023/05/29 13:16:37;;;;;;;3.72;2.02;;;;;;;22.82;35.88;101048.88;4937941;57;1138785;-66
2023/05/29 13:21:48;;;;;;;4.87;1.75;;;;;;;22.91;37.64;101044.57;4873276;58;1138965;-66
2023/05/29 13:26:50;;;;;;;2.27;2.00;;;;;;;23.12;36.06;101041.09;4991707;57;1138583;-67
2023/05/29 13:31:56;;;;;;;2.55;1.30;;;;;;;23.43;35.79;101037.64;4891225;57;1138819;-68
2023/05/29 13:37:02;;;;;;;5.20;1.95;;;;;;;23.76;36.06;101031.80;4942215;57;1138936;-68
2023/05/29 13:42:09;;;;;;;9.60;2.25;;;;;;;23.83;34.54;101029.47;4942054;57;1138874;-70
2023/05/29 13:47:15;;;;;;;5.92;2.08;;;;;;;24.11;36.39;101033.59;4961326;57;1138906;-65
2023/05/29 13:52:20;;;;;;;2.97;2.13;;;;;;;24.23;32.43;101029.87;4980321;56;1139148;-65
2023/05/29 13:57:27;;;;;;;5.83;2.47;;;;;;;24.14;33.84;101029.13;5059327;56;1139164;-68
2023/05/29 14:02:33;;;;;;;5.05;2.12;;;;;;;24.20;35.16;101025.65;5083861;57;1138693;-68
2023/05/29 14:07:39;;;;;;;5.30;2.10;;;;;;;24.37;35.36;101026.23;5027961;56;1138866;-64
2023/05/29 14:12:44;;;;;;;3.60;1.95;;;;;;;24.52;34.87;101024.26;5075424;56;1138729;-68
2023/05/29 14:17:50;;;;;;;4.45;2.20;;;;;;;24.66;34.77;101032.45;5107295;56;1138861;-66
2023/05/29 14:22:56;;;;;;;9.48;2.80;;;;;;;24.75;35.78;101034.80;5101561;56;1138893;-66
2023/05/29 14:28:01;;;;;;;5.30;1.60;;;;;;;24.68;34.03;101028.52;5107876;56;1138826;-67
2023/05/29 14:33:07;;;;;;;6.70;2.20;;;;;;;24.77;34.48;101031.89;5125319;56;1138770;-67
2023/05/29 14:38:12;;;;;;;29.75;3.70;;;;;;;24.79;33.60;101024.42;4978953;57;1138913;-66
2023/05/29 14:43:18;;;;;;;4.40;2.27;;;;;;;24.97;34.05;101019.86;5068643;56;1140694;-66
2023/05/29 14:48:24;;;;;;;3.18;1.84;;;;;;;24.92;33.63;101007.41;4942018;57;1138926;-69
2023/05/29 14:53:31;;;;;;;3.13;1.53;;;;;;;24.83;33.14;101010.30;4967117;57;1138950;-68
2023/05/29 14:58:37;;;;;;;4.03;2.33;;;;;;;24.94;31.76;101008.92;4900189;58;1138713;-68
2023/05/29 15:03:42;;;;;;;4.17;1.95;;;;;;;24.56;30.98;101004.94;4918183;59;1138725;-66
2023/05/29 15:08:50;;;;;;;6.53;2.20;;;;;;;24.32;30.02;101008.92;4937708;58;1139014;-65
2023/05/29 15:13:56;;;;;;;3.80;2.40;;;;;;;24.15;31.42;101006.98;5002987;58;1138732;-66
2023/05/29 15:19:02;;;;;;;2.85;1.95;;;;;;;24.08;31.61;101002.89;4921290;58;1138962;-67
2023/05/29 15:24:08;;;;;;;4.78;1.52;;;;;;;23.98;31.65;100999.70;4956831;58;1138955;-64
2023/05/29 15:29:13;;;;;;;2.15;1.95;;;;;;;23.73;31.35;101001.11;4922484;58;1139156;-66
2023/05/29 15:34:19;;;;;;;5.53;2.30;;;;;;;23.66;31.82;100998.36;5017910;57;1138943;-68
2023/05/29 15:39:25;;;;;;;5.02;2.08;;;;;;;23.65;31.72;100990.45;5085983;56;1138947;-65
2023/05/29 15:44:31;;;;;;;2.83;1.62;;;;;;;23.59;32.75;100991.20;5106278;57;1138901;-66
2023/05/29 15:49:36;;;;;;;3.75;1.85;;;;;;;23.69;33.99;100995.77;5084654;57;1138988;-65
2023/05/29 15:54:42;;;;;;;4.40;1.42;;;;;;;23.72;32.98;100993.52;5072248;56;1138769;-68
2023/05/29 15:59:47;;;;;;;9.80;2.20;;;;;;;23.58;33.88;100996.28;5013078;57;1138901;-68
2023/05/29 16:04:53;;;;;;;7.37;2.10;;;;;;;23.69;33.42;100995.25;4900774;58;1138749;-66
2023/05/29 16:09:59;;;;;;;3.95;2.45;;;;;;;23.44;33.93;100996.12;4924302;58;1139062;-69
2023/05/29 16:15:05;;;;;;;8.75;2.15;;;;;;;23.35;34.60;101001.33;5022407;57;1138896;-67
2023/05/29 16:20:12;;;;;;;8.55;2.25;;;;;;;23.55;34.87;100998.02;4887312;58;1138974;-65
2023/05/29 16:25:17;;;;;;;6.17;2.20;;;;;;;23.76;35.25;100992.11;4895187;57;1138866;-66
2023/05/29 16:30:26;;;;;;;5.13;2.27;;;;;;;23.92;35.08;100987.47;5096327;56;1138872;-65
2023/05/29 16:35:32;;;;;;;4.37;1.80;;;;;;;23.88;34.74;100990.23;5134287;55;1138875;-66
2023/05/29 16:40:38;;;;;;;7.33;2.60;;;;;;;23.58;33.84;100991.72;5095024;56;1138785;-63
2023/05/29 16:45:43;;;;;;;6.62;2.83;;;;;;;23.14;34.14;100986.42;5097427;56;1138834;-65
2023/05/29 16:50:50;;;;;;;11.08;2.17;;;;;;;22.78;35.08;100989.07;5115462;57;1139060;-66
2023/05/29 16:55:56;;;;;;;6.12;2.70;;;;;;;22.74;36.03;100984.55;4950287;56;1140771;-67
2023/05/29 17:01:02;;;;;;;5.25;2.02;;;;;;;22.75;36.30;100982.70;5047688;55;1138845;-65
2023/05/29 17:06:08;;;;;;;7.08;3.30;;;;;;;22.68;36.50;100982.59;5032591;57;1138638;-64
2023/05/29 17:11:13;;;;;;;9.03;3.27;;;;;;;22.56;35.96;100985.44;5046140;56;1138944;-66
2023/05/29 17:16:19;;;;;;;7.83;4.40;;;;;;;22.40;36.82;100996.39;4973792;57;1138564;-68
2023/05/29 17:21:24;;;;;;;10.85;3.80;;;;;;;22.24;37.12;101001.94;5015700;57;1138935;-66
2023/05/29 17:26:30;;;;;;;10.15;4.22;;;;;;;22.19;37.86;101011.07;5119284;56;1141025;-66
2023/05/29 17:31:35;;;;;;;8.58;3.22;;;;;;;22.07;38.12;101005.30;5103293;56;1140833;-68
2023/05/29 17:36:41;;;;;;;10.72;3.40;;;;;;;22.03;38.55;101011.55;5098204;56;1138830;-67
2023/05/29 17:41:47;;;;;;;14.30;3.37;;;;;;;21.85;38.51;101010.98;5135052;56;1141029;-65
2023/05/29 17:46:53;;;;;;;12.05;2.45;;;;;;;21.55;39.69;101018.60;5106152;56;1140973;-68
2023/05/29 17:51:59;;;;;;;10.70;2.62;;;;;;;21.27;40.01;101019.11;5025656;56;1140747;-64
2023/05/29 17:57:05;;;;;;;10.63;3.20;;;;;;;21.06;40.59;101028.27;5090069;56;1141156;-66
2023/05/29 18:02:12;;;;;;;8.13;3.80;;;;;;;20.99;40.98;101021.91;5136784;56;1140911;-63
2023/05/29 18:07:18;;;;;;;10.08;3.98;;;;;;;20.98;41.50;101029.64;5136658;56;1138902;-65
2023/05/29 18:12:23;;;;;;;8.98;3.10;;;;;;;20.81;41.20;101028.85;5076581;56;1140978;-65
2023/05/29 18:17:29;;;;;;;5.87;3.67;;;;;;;20.74;41.92;101029.73;5073378;56;1138877;-69
2023/05/29 18:22:35;;;;;;;26.27;18.20;;;;;;;20.83;42.25;101040.28;5053493;56;1138923;-69
2023/05/29 18:27:40;;;;;;;15.88;8.00;;;;;;;20.99;42.22;101031.31;5118693;56;1142996;-67
2023/05/29 18:32:46;;;;;;;9.63;3.98;;;;;;;21.05;42.03;101037.36;5157647;56;1140878;-68
2023/05/29 18:37:52;;;;;;;28.62;19.00;;;;;;;21.02;41.78;101036.36;5136572;56;1138716;-66
2023/05/29 18:42:57;;;;;;;15.43;8.48;;;;;;;20.90;41.68;101035.90;5136856;56;1143054;-64
2023/05/29 18:48:03;;;;;;;5.95;3.72;;;;;;;20.84;41.57;101034.39;5157373;56;1140827;-66
2023/05/29 18:53:09;;;;;;;16.75;9.70;;;;;;;20.73;41.63;101040.16;5084692;56;1139001;-65
2023/05/29 18:58:15;;;;;;;18.98;11.30;;;;;;;20.61;42.08;101043.72;5052396;57;1140839;-66
2023/05/29 19:03:20;;;;;;;26.15;9.70;;;;;;;20.54;42.29;101052.95;5052722;57;1143305;-66
2023/05/29 19:08:26;;;;;;;12.07;3.87;;;;;;;20.49;42.51;101054.46;5072404;57;1140881;-65
2023/05/29 19:13:32;;;;;;;11.07;4.03;;;;;;;20.44;42.73;101059.02;5132854;56;1140946;-66
2023/05/29 19:18:38;;;;;;;11.53;5.80;;;;;;;20.40;42.70;101056.84;5100747;56;1140709;-64
2023/05/29 19:23:43;;;;;;;23.22;7.65;;;;;;;20.28;42.60;101061.69;5071957;56;1140878;-68
2023/05/29 19:28:50;;;;;;;13.65;4.87;;;;;;;20.10;42.58;101074.44;5051960;57;1140706;-65
2023/05/29 19:33:59;;;;;;;15.13;7.58;;;;;;;20.02;42.62;101077.44;4993011;57;1140934;-68
2023/05/29 19:39:04;;;;;;;9.45;4.22;;;;;;;19.92;42.78;101084.83;4995431;57;1140797;-68
2023/05/29 19:44:10;;;;;;;10.52;3.64;;;;;;;19.80;42.82;101094.20;5054936;56;1138878;-66
2023/05/29 19:49:17;;;;;;;10.03;3.42;;;;;;;19.61;42.96;101097.17;5053148;56;1140903;-67
2023/05/29 19:54:22;;;;;;;10.47;3.30;;;;;;;19.54;43.04;101107.73;5037824;57;1141245;-66
2023/05/29 19:59:28;;;;;;;7.90;3.33;;;;;;;19.46;43.24;101114.36;5054967;57;1140843;-63
2023/05/29 20:04:35;;;;;;;8.97;2.97;;;;;;;19.21;43.43;101110.75;5035546;57;1138996;-63
2023/05/29 20:09:41;;;;;;;17.20;3.30;;;;;;;19.11;43.48;101119.89;5022527;57;1138995;-65
2023/05/29 20:14:47;;;;;;;7.30;3.00;;;;;;;19.03;44.02;101123.39;4987615;58;1140933;-66
2023/05/29 20:19:54;;;;;;;10.38;3.20;;;;;;;18.94;43.74;101129.19;5028539;57;1138738;-70
2023/05/29 20:25:00;;;;;;;8.85;3.08;;;;;;;18.83;44.18;101124.59;5055352;57;1140987;-66
2023/05/29 20:30:07;;;;;;;9.23;2.90;;;;;;;18.66;44.20;101126.81;5075403;57;1138854;-67
2023/05/29 20:35:16;;;;;;;6.58;2.40;;;;;;;18.55;44.27;101134.58;5055517;56;1138757;-65
2023/05/29 20:40:22;;;;;;;6.53;2.83;;;;;;;18.43;44.52;101139.34;5056633;57;1138624;-68
2023/05/29 20:45:27;;;;;;;9.50;2.40;;;;;;;18.34;44.51;101147.45;5056947;57;1138841;-65
2023/05/29 20:50:33;;;;;;;5.33;2.33;;;;;;;18.36;44.85;101144.97;5067062;57;1138901;-68
2023/05/29 20:55:39;;;;;;;8.95;2.85;;;;;;;18.32;44.49;101143.61;4973206;58;1138922;-67
2023/05/29 21:00:44;;;;;;;8.75;3.02;;;;;;;18.22;44.62;101149.03;4973103;58;1138952;-67
2023/05/29 21:05:51;;;;;;;14.78;3.15;;;;;;;18.15;44.58;101143.95;4992048;58;1138647;-65
2023/05/29 21:10:57;;;;;;;7.03;3.12;;;;;;;18.12;44.60;101145.59;4971991;58;1140838;-69
2023/05/29 21:16:03;;;;;;;12.80;3.70;;;;;;;18.02;44.60;101146.17;4973233;58;1138900;-69
2023/05/29 21:21:09;;;;;;;11.12;4.10;;;;;;;17.72;44.38;101145.17;4991619;58;1140887;-65
2023/05/29 21:26:15;;;;;;;10.20;4.67;;;;;;;17.45;45.04;101141.95;5013736;57;1140892;-64
2023/05/29 21:31:20;;;;;;;10.40;4.10;;;;;;;17.28;45.64;101149.41;5053569;57;1199325;-69
2023/05/29 21:36:26;;;;;;;10.58;3.92;;;;;;;17.05;46.05;101151.63;5026596;56;1140997;-65
2023/05/29 21:41:32;;;;;;;16.27;4.37;;;;;;;16.86;46.84;101148.01;5162629;56;1140960;-70
2023/05/29 21:46:38;;;;;;;8.80;3.67;;;;;;;16.63;47.34;101148.48;5142253;56;1141114;-69
2023/05/29 21:51:44;;;;;;;14.80;4.07;;;;;;;16.46;48.12;101150.86;5113999;56;1138904;-64
2023/05/29 21:56:49;;;;;;;14.43;4.37;;;;;;;16.54;48.89;101150.98;5077422;57;1140973;-65
2023/05/29 22:01:56;;;;;;;9.10;4.73;;;;;;;16.71;49.35;101152.61;5057144;57;1140825;-66
2023/05/29 22:07:01;;;;;;;10.95;3.98;;;;;;;16.78;49.20;101150.57;5054390;57;1246592;-65
2023/05/29 22:12:08;;;;;;;9.80;3.70;;;;;;;16.66;48.94;101156.19;5074558;57;1249540;-64
2023/05/29 22:17:13;;;;;;;7.60;3.37;;;;;;;16.57;49.14;101153.02;5067814;56;1237635;-65
2023/05/29 22:22:20;;;;;;;10.40;3.85;;;;;;;16.53;49.43;101148.45;5158460;56;1182815;-67
2023/05/29 22:27:26;;;;;;;11.03;4.33;;;;;;;16.64;50.07;101152.35;5137393;56;1248413;-67
2023/05/29 22:32:32;;;;;;;15.68;2.85;;;;;;;16.77;50.25;101146.21;5145470;56;1247880;-66
2023/05/29 22:37:38;;;;;;;23.60;3.50;;;;;;;16.79;50.08;101152.75;5031483;57;1246248;-63
2023/05/29 22:42:44;;;;;;;9.13;2.90;;;;;;;16.81;50.19;101148.08;4964764;58;1257422;-67
2023/05/29 22:47:50;;;;;;;19.30;5.80;;;;;;;16.87;50.33;101154.20;4986322;58;1237474;-66
2023/05/29 22:52:57;;;;;;;11.40;4.20;;;;;;;16.64;49.94;101161.70;5012337;56;1255016;-66
2023/05/29 22:58:03;;;;;;;12.00;4.13;;;;;;;16.39;50.03;101159.06;5048535;57;1255035;-65
2023/05/29 23:03:09;;;;;;;9.57;3.70;;;;;;;16.18;51.16;101155.22;5070278;57;1141102;-69